sensor_id;sensor_type;location;lat;lon;timestamp;P1;durP1;ratioP1;P2;durP2;ratioP2
70707;SDS011;58277;47.316;18.908;2022-10-04T00:01:51;6.00;;;2.10;;
70707;SDS011;58277;47.316;18.908;2022-10-04T00:04:24;3.80;;;1.90;;
70707;SDS011;58277;47.316;18.908;2022-10-04T00:06:58;5.45;;;2.28;;
70707;SDS011;58277;47.316;18.908;2022-10-04T00:09:32;4.30;;;1.73;;
70707;SDS011;58277;47.316;18.908;2022-10-04T00:11:57;4.78;;;2.03;;
70707;SDS011;58277;47.316;18.908;2022-10-04T00:14:23;3.53;;;1.75;;
70707;SDS011;58277;47.316;18.908;2022-10-04T00:16:50;5.80;;;1.70;;
70707;SDS011;58277;47.316;18.908;2022-10-04T00:22:19;4.63;;;2.00;;
70707;SDS011;58277;47.316;18.908;2022-10-04T00:24:31;6.25;;;1.90;;
70707;SDS011;58277;47.316;18.908;2022-10-04T00:35:05;5.03;;;2.27;;
70707;SDS011;58277;47.316;18.908;2022-10-04T00:37:57;5.93;;;2.08;;
70707;SDS011;58277;47.316;18.908;2022-10-04T00:40:34;5.30;;;2.28;;
70707;SDS011;58277;47.316;18.908;2022-10-04T00:43:19;7.38;;;2.20;;
70707;SDS011;58277;47.316;18.908;2022-10-04T00:45:51;5.10;;;2.17;;
70707;SDS011;58277;47.316;18.908;2022-10-04T00:48:32;7.13;;;2.10;;
70707;SDS011;58277;47.316;18.908;2022-10-04T00:51:10;5.78;;;2.10;;
70707;SDS011;58277;47.316;18.908;2022-10-04T00:56:39;6.88;;;2.20;;
70707;SDS011;58277;47.316;18.908;2022-10-04T00:59:16;7.60;;;2.17;;
70707;SDS011;58277;47.316;18.908;2022-10-04T01:02:02;5.20;;;2.10;;
70707;SDS011;58277;47.316;18.908;2022-10-04T01:04:28;6.65;;;2.13;;
70707;SDS011;58277;47.316;18.908;2022-10-04T01:06:58;7.05;;;2.35;;
70707;SDS011;58277;47.316;18.908;2022-10-04T01:09:24;5.30;;;1.90;;
70707;SDS011;58277;47.316;18.908;2022-10-04T01:11:49;4.18;;;2.00;;
70707;SDS011;58277;47.316;18.908;2022-10-04T01:14:35;6.40;;;2.00;;
70707;SDS011;58277;47.316;18.908;2022-10-04T01:17:06;5.15;;;2.10;;
70707;SDS011;58277;47.316;18.908;2022-10-04T01:19:29;5.13;;;2.20;;
70707;SDS011;58277;47.316;18.908;2022-10-04T01:22:13;5.00;;;2.17;;
70707;SDS011;58277;47.316;18.908;2022-10-04T01:24:42;4.03;;;2.00;;
70707;SDS011;58277;47.316;18.908;2022-10-04T01:27:29;3.53;;;1.90;;
70707;SDS011;58277;47.316;18.908;2022-10-04T01:29:56;3.67;;;2.00;;
70707;SDS011;58277;47.316;18.908;2022-10-04T01:32:20;4.72;;;2.10;;
70707;SDS011;58277;47.316;18.908;2022-10-04T01:34:43;6.38;;;2.10;;
70707;SDS011;58277;47.316;18.908;2022-10-04T01:37:06;8.07;;;2.53;;
70707;SDS011;58277;47.316;18.908;2022-10-04T01:39:29;6.33;;;2.10;;
70707;SDS011;58277;47.316;18.908;2022-10-04T01:47:11;4.78;;;1.92;;
70707;SDS011;58277;47.316;18.908;2022-10-04T01:49:42;4.88;;;1.92;;
70707;SDS011;58277;47.316;18.908;2022-10-04T01:52:08;4.40;;;2.00;;
70707;SDS011;58277;47.316;18.908;2022-10-04T01:54:41;5.70;;;2.00;;
70707;SDS011;58277;47.316;18.908;2022-10-04T01:57:16;4.80;;;2.53;;
70707;SDS011;58277;47.316;18.908;2022-10-04T01:59:48;4.68;;;2.10;;
70707;SDS011;58277;47.316;18.908;2022-10-04T02:02:19;5.82;;;2.35;;
70707;SDS011;58277;47.316;18.908;2022-10-04T02:04:49;6.30;;;2.10;;
70707;SDS011;58277;47.316;18.908;2022-10-04T02:07:15;4.65;;;2.20;;
70707;SDS011;58277;47.316;18.908;2022-10-04T02:09:38;5.75;;;2.20;;
70707;SDS011;58277;47.316;18.908;2022-10-04T02:12:04;4.22;;;2.00;;
70707;SDS011;58277;47.316;18.908;2022-10-04T02:14:32;5.60;;;2.10;;
70707;SDS011;58277;47.316;18.908;2022-10-04T02:16:56;4.73;;;2.00;;
70707;SDS011;58277;47.316;18.908;2022-10-04T02:19:22;4.75;;;1.95;;
70707;SDS011;58277;47.316;18.908;2022-10-04T02:21:48;5.97;;;2.55;;
70707;SDS011;58277;47.316;18.908;2022-10-04T02:24:12;4.45;;;2.00;;
70707;SDS011;58277;47.316;18.908;2022-10-04T02:26:36;4.03;;;1.80;;
70707;SDS011;58277;47.316;18.908;2022-10-04T02:28:58;4.07;;;1.77;;
70707;SDS011;58277;47.316;18.908;2022-10-04T02:31:21;5.30;;;2.08;;
70707;SDS011;58277;47.316;18.908;2022-10-04T02:34:04;4.05;;;2.10;;
70707;SDS011;58277;47.316;18.908;2022-10-04T02:36:27;4.18;;;2.03;;
70707;SDS011;58277;47.316;18.908;2022-10-04T02:38:58;6.18;;;2.22;;
70707;SDS011;58277;47.316;18.908;2022-10-04T02:41:27;5.63;;;2.10;;
70707;SDS011;58277;47.316;18.908;2022-10-04T02:46:53;5.40;;;2.05;;
70707;SDS011;58277;47.316;18.908;2022-10-04T02:52:07;6.22;;;2.10;;
70707;SDS011;58277;47.316;18.908;2022-10-04T02:54:43;5.43;;;2.13;;
70707;SDS011;58277;47.316;18.908;2022-10-04T02:57:14;5.50;;;2.20;;
70707;SDS011;58277;47.316;18.908;2022-10-04T02:59:40;7.80;;;2.17;;
70707;SDS011;58277;47.316;18.908;2022-10-04T03:02:18;6.35;;;1.90;;
70707;SDS011;58277;47.316;18.908;2022-10-04T03:04:51;4.30;;;2.20;;
70707;SDS011;58277;47.316;18.908;2022-10-04T03:07:16;5.53;;;1.90;;
70707;SDS011;58277;47.316;18.908;2022-10-04T03:09:41;6.47;;;1.90;;
70707;SDS011;58277;47.316;18.908;2022-10-04T03:12:03;4.93;;;2.10;;
70707;SDS011;58277;47.316;18.908;2022-10-04T03:14:27;6.70;;;2.20;;
70707;SDS011;58277;47.316;18.908;2022-10-04T03:16:51;5.60;;;2.25;;
70707;SDS011;58277;47.316;18.908;2022-10-04T03:19:16;4.73;;;2.03;;
70707;SDS011;58277;47.316;18.908;2022-10-04T03:21:40;8.30;;;2.00;;
70707;SDS011;58277;47.316;18.908;2022-10-04T03:24:05;3.92;;;2.08;;
70707;SDS011;58277;47.316;18.908;2022-10-04T03:28:58;5.45;;;2.33;;
70707;SDS011;58277;47.316;18.908;2022-10-04T03:31:21;5.97;;;2.13;;
70707;SDS011;58277;47.316;18.908;2022-10-04T03:33:45;5.18;;;1.90;;
70707;SDS011;58277;47.316;18.908;2022-10-04T03:36:11;4.70;;;2.00;;
70707;SDS011;58277;47.316;18.908;2022-10-04T03:38:37;7.03;;;2.28;;
70707;SDS011;58277;47.316;18.908;2022-10-04T03:41:01;6.07;;;2.10;;
70707;SDS011;58277;47.316;18.908;2022-10-04T03:43:25;5.37;;;1.90;;
70707;SDS011;58277;47.316;18.908;2022-10-04T03:45:51;6.38;;;2.08;;
70707;SDS011;58277;47.316;18.908;2022-10-04T03:48:16;6.35;;;2.22;;
70707;SDS011;58277;47.316;18.908;2022-10-04T03:50:47;4.07;;;1.85;;
70707;SDS011;58277;47.316;18.908;2022-10-04T03:53:22;5.97;;;2.00;;
70707;SDS011;58277;47.316;18.908;2022-10-04T03:55:49;5.20;;;2.10;;
70707;SDS011;58277;47.316;18.908;2022-10-04T03:58:14;4.57;;;1.90;;
70707;SDS011;58277;47.316;18.908;2022-10-04T04:00:40;5.50;;;2.17;;
70707;SDS011;58277;47.316;18.908;2022-10-04T04:06:25;7.30;;;2.20;;
70707;SDS011;58277;47.316;18.908;2022-10-04T04:09:02;5.60;;;2.10;;
70707;SDS011;58277;47.316;18.908;2022-10-04T04:11:27;5.70;;;2.13;;
70707;SDS011;58277;47.316;18.908;2022-10-04T04:16:19;5.32;;;1.75;;
70707;SDS011;58277;47.316;18.908;2022-10-04T04:18:47;5.22;;;2.13;;
70707;SDS011;58277;47.316;18.908;2022-10-04T04:21:13;6.67;;;2.20;;
70707;SDS011;58277;47.316;18.908;2022-10-04T04:23:46;4.82;;;2.17;;
70707;SDS011;58277;47.316;18.908;2022-10-04T04:31:31;5.30;;;2.20;;
70707;SDS011;58277;47.316;18.908;2022-10-04T04:34:03;6.27;;;2.20;;
70707;SDS011;58277;47.316;18.908;2022-10-04T04:36:39;5.75;;;2.38;;
70707;SDS011;58277;47.316;18.908;2022-10-04T04:39:13;5.07;;;2.30;;
70707;SDS011;58277;47.316;18.908;2022-10-04T04:41:55;6.35;;;2.17;;
70707;SDS011;58277;47.316;18.908;2022-10-04T04:44:18;4.47;;;1.83;;
70707;SDS011;58277;47.316;18.908;2022-10-04T04:46:41;4.43;;;2.10;;
70707;SDS011;58277;47.316;18.908;2022-10-04T04:49:05;4.57;;;2.05;;
70707;SDS011;58277;47.316;18.908;2022-10-04T04:51:28;6.50;;;2.35;;
70707;SDS011;58277;47.316;18.908;2022-10-04T04:53:52;5.25;;;1.90;;
70707;SDS011;58277;47.316;18.908;2022-10-04T04:56:18;5.97;;;2.35;;
70707;SDS011;58277;47.316;18.908;2022-10-04T04:58:45;6.77;;;2.00;;
70707;SDS011;58277;47.316;18.908;2022-10-04T05:03:40;4.30;;;2.17;;
70707;SDS011;58277;47.316;18.908;2022-10-04T05:06:03;4.18;;;2.20;;
70707;SDS011;58277;47.316;18.908;2022-10-04T05:08:29;4.60;;;2.10;;
70707;SDS011;58277;47.316;18.908;2022-10-04T05:11:02;4.60;;;2.00;;
70707;SDS011;58277;47.316;18.908;2022-10-04T05:13:44;8.45;;;2.80;;
70707;SDS011;58277;47.316;18.908;2022-10-04T05:16:35;6.80;;;2.38;;
70707;SDS011;58277;47.316;18.908;2022-10-04T05:19:06;6.45;;;2.10;;
70707;SDS011;58277;47.316;18.908;2022-10-04T05:21:34;5.28;;;2.08;;
70707;SDS011;58277;47.316;18.908;2022-10-04T05:24:47;5.83;;;2.10;;
70707;SDS011;58277;47.316;18.908;2022-10-04T05:26:59;6.65;;;2.15;;
70707;SDS011;58277;47.316;18.908;2022-10-04T05:29:25;6.65;;;2.10;;
70707;SDS011;58277;47.316;18.908;2022-10-04T05:34:21;5.07;;;2.10;;
70707;SDS011;58277;47.316;18.908;2022-10-04T05:42:53;6.35;;;2.20;;
70707;SDS011;58277;47.316;18.908;2022-10-04T05:45:10;4.75;;;1.90;;
70707;SDS011;58277;47.316;18.908;2022-10-04T05:47:45;6.30;;;2.25;;
70707;SDS011;58277;47.316;18.908;2022-10-04T05:53:07;4.32;;;1.77;;
70707;SDS011;58277;47.316;18.908;2022-10-04T05:55:39;5.65;;;2.20;;
70707;SDS011;58277;47.316;18.908;2022-10-04T06:03:58;4.73;;;1.90;;
70707;SDS011;58277;47.316;18.908;2022-10-04T06:22:21;4.55;;;1.80;;
70707;SDS011;58277;47.316;18.908;2022-10-04T06:30:12;4.00;;;1.77;;
70707;SDS011;58277;47.316;18.908;2022-10-04T06:33:19;2.90;;;1.63;;
70707;SDS011;58277;47.316;18.908;2022-10-04T06:56:47;6.00;;;1.80;;
70707;SDS011;58277;47.316;18.908;2022-10-04T07:02:19;6.65;;;1.77;;
70707;SDS011;58277;47.316;18.908;2022-10-04T07:07:35;4.47;;;1.88;;
70707;SDS011;58277;47.316;18.908;2022-10-04T07:12:41;5.00;;;2.10;;
70707;SDS011;58277;47.316;18.908;2022-10-04T07:15:13;4.03;;;1.70;;
70707;SDS011;58277;47.316;18.908;2022-10-04T07:17:42;2.63;;;1.40;;
70707;SDS011;58277;47.316;18.908;2022-10-04T07:20:16;3.75;;;1.60;;
70707;SDS011;58277;47.316;18.908;2022-10-04T07:22:50;4.17;;;1.90;;
70707;SDS011;58277;47.316;18.908;2022-10-04T07:25:41;3.80;;;1.98;;
70707;SDS011;58277;47.316;18.908;2022-10-04T07:30:53;5.25;;;1.80;;
70707;SDS011;58277;47.316;18.908;2022-10-04T07:33:34;4.10;;;1.98;;
70707;SDS011;58277;47.316;18.908;2022-10-04T07:38:35;4.22;;;1.80;;
70707;SDS011;58277;47.316;18.908;2022-10-04T07:41:08;4.78;;;2.00;;
70707;SDS011;58277;47.316;18.908;2022-10-04T07:43:44;4.97;;;2.47;;
70707;SDS011;58277;47.316;18.908;2022-10-04T07:46:16;3.75;;;1.98;;
70707;SDS011;58277;47.316;18.908;2022-10-04T07:48:42;4.00;;;2.00;;
70707;SDS011;58277;47.316;18.908;2022-10-04T08:01:52;4.77;;;1.70;;
70707;SDS011;58277;47.316;18.908;2022-10-04T08:07:17;5.88;;;2.97;;
70707;SDS011;58277;47.316;18.908;2022-10-04T08:28:52;2.67;;;1.73;;
70707;SDS011;58277;47.316;18.908;2022-10-04T08:34:32;2.47;;;1.67;;
70707;SDS011;58277;47.316;18.908;2022-10-04T08:42:44;2.53;;;1.60;;
70707;SDS011;58277;47.316;18.908;2022-10-04T09:00:19;4.47;;;1.90;;
70707;SDS011;58277;47.316;18.908;2022-10-04T09:14:27;3.58;;;2.05;;
70707;SDS011;58277;47.316;18.908;2022-10-04T09:17:37;4.22;;;2.10;;
70707;SDS011;58277;47.316;18.908;2022-10-04T09:31:42;6.13;;;2.13;;
70707;SDS011;58277;47.316;18.908;2022-10-04T09:37:01;4.28;;;2.08;;
70707;SDS011;58277;47.316;18.908;2022-10-04T09:39:56;4.33;;;2.10;;
70707;SDS011;58277;47.316;18.908;2022-10-04T09:53:49;5.70;;;2.00;;
70707;SDS011;58277;47.316;18.908;2022-10-04T10:05:33;4.97;;;2.05;;
70707;SDS011;58277;47.316;18.908;2022-10-04T10:17:05;3.55;;;1.90;;
70707;SDS011;58277;47.316;18.908;2022-10-04T10:23:17;5.73;;;1.80;;
70707;SDS011;58277;47.316;18.908;2022-10-04T10:25:28;3.90;;;1.95;;
70707;SDS011;58277;47.316;18.908;2022-10-04T10:49:42;3.47;;;1.93;;
70707;SDS011;58277;47.316;18.908;2022-10-04T10:55:28;5.97;;;2.00;;
70707;SDS011;58277;47.316;18.908;2022-10-04T11:12:26;4.35;;;1.80;;
70707;SDS011;58277;47.316;18.908;2022-10-04T11:28:36;4.05;;;1.77;;
70707;SDS011;58277;47.316;18.908;2022-10-04T11:37:51;6.53;;;2.45;;
70707;SDS011;58277;47.316;18.908;2022-10-04T11:45:26;4.90;;;2.50;;
70707;SDS011;58277;47.316;18.908;2022-10-04T12:04:01;4.55;;;2.17;;
70707;SDS011;58277;47.316;18.908;2022-10-04T12:19:36;3.85;;;2.00;;
70707;SDS011;58277;47.316;18.908;2022-10-04T12:31:14;5.07;;;2.20;;
70707;SDS011;58277;47.316;18.908;2022-10-04T12:33:49;4.00;;;1.90;;
70707;SDS011;58277;47.316;18.908;2022-10-04T12:50:20;8.13;;;3.97;;
70707;SDS011;58277;47.316;18.908;2022-10-04T13:01:46;4.97;;;2.90;;
70707;SDS011;58277;47.316;18.908;2022-10-04T13:13:06;5.45;;;2.42;;
70707;SDS011;58277;47.316;18.908;2022-10-04T13:16:06;3.63;;;2.45;;
70707;SDS011;58277;47.316;18.908;2022-10-04T13:27:17;4.10;;;2.33;;
70707;SDS011;58277;47.316;18.908;2022-10-04T13:43:23;4.20;;;2.53;;
70707;SDS011;58277;47.316;18.908;2022-10-04T13:52:02;6.50;;;3.03;;
70707;SDS011;58277;47.316;18.908;2022-10-04T13:54:39;6.75;;;2.83;;
70707;SDS011;58277;47.316;18.908;2022-10-04T14:00:19;4.60;;;2.80;;
70707;SDS011;58277;47.316;18.908;2022-10-04T14:38:35;5.47;;;2.75;;
70707;SDS011;58277;47.316;18.908;2022-10-04T14:49:25;5.10;;;2.70;;
70707;SDS011;58277;47.316;18.908;2022-10-04T14:57:39;3.80;;;2.30;;
70707;SDS011;58277;47.316;18.908;2022-10-04T15:00:23;5.82;;;1.90;;
70707;SDS011;58277;47.316;18.908;2022-10-04T15:03:16;3.03;;;1.90;;
70707;SDS011;58277;47.316;18.908;2022-10-04T15:10:47;3.80;;;1.50;;
70707;SDS011;58277;47.316;18.908;2022-10-04T15:15:58;3.50;;;1.60;;
70707;SDS011;58277;47.316;18.908;2022-10-04T15:18:53;3.15;;;1.65;;
70707;SDS011;58277;47.316;18.908;2022-10-04T15:27:21;2.63;;;1.48;;
70707;SDS011;58277;47.316;18.908;2022-10-04T15:41:02;2.60;;;1.48;;
70707;SDS011;58277;47.316;18.908;2022-10-04T15:43:41;4.35;;;1.60;;
70707;SDS011;58277;47.316;18.908;2022-10-04T15:49:23;2.90;;;1.48;;
70707;SDS011;58277;47.316;18.908;2022-10-04T15:57:49;4.93;;;2.30;;
70707;SDS011;58277;47.316;18.908;2022-10-04T16:06:40;3.83;;;1.60;;
70707;SDS011;58277;47.316;18.908;2022-10-04T16:15:08;5.30;;;2.53;;
70707;SDS011;58277;47.316;18.908;2022-10-04T16:22:31;6.28;;;2.47;;
70707;SDS011;58277;47.316;18.908;2022-10-04T16:24:59;5.05;;;2.40;;
70707;SDS011;58277;47.316;18.908;2022-10-04T16:35:28;5.45;;;3.28;;
70707;SDS011;58277;47.316;18.908;2022-10-04T16:41:26;4.93;;;2.97;;
70707;SDS011;58277;47.316;18.908;2022-10-04T16:45:47;7.60;;;3.30;;
70707;SDS011;58277;47.316;18.908;2022-10-04T16:56:09;7.57;;;3.72;;
70707;SDS011;58277;47.316;18.908;2022-10-04T16:58:42;8.67;;;4.10;;
70707;SDS011;58277;47.316;18.908;2022-10-04T17:20:09;7.78;;;3.55;;
70707;SDS011;58277;47.316;18.908;2022-10-04T17:28:14;7.80;;;3.97;;
70707;SDS011;58277;47.316;18.908;2022-10-04T17:30:53;7.90;;;4.30;;
70707;SDS011;58277;47.316;18.908;2022-10-04T17:38:46;10.07;;;5.40;;
70707;SDS011;58277;47.316;18.908;2022-10-04T17:44:22;9.80;;;5.10;;
70707;SDS011;58277;47.316;18.908;2022-10-04T17:47:02;9.65;;;4.75;;
70707;SDS011;58277;47.316;18.908;2022-10-04T17:49:48;8.82;;;4.72;;
70707;SDS011;58277;47.316;18.908;2022-10-04T17:52:40;8.03;;;4.03;;
70707;SDS011;58277;47.316;18.908;2022-10-04T17:55:25;10.93;;;5.05;;
70707;SDS011;58277;47.316;18.908;2022-10-04T17:58:19;10.52;;;5.28;;
70707;SDS011;58277;47.316;18.908;2022-10-04T18:03:51;11.18;;;5.57;;
70707;SDS011;58277;47.316;18.908;2022-10-04T18:09:04;13.48;;;6.45;;
70707;SDS011;58277;47.316;18.908;2022-10-04T18:11:45;14.25;;;7.63;;
70707;SDS011;58277;47.316;18.908;2022-10-04T18:17:21;8.68;;;4.50;;
70707;SDS011;58277;47.316;18.908;2022-10-04T18:19:42;9.70;;;4.40;;
70707;SDS011;58277;47.316;18.908;2022-10-04T18:22:19;10.27;;;4.88;;
70707;SDS011;58277;47.316;18.908;2022-10-04T18:24:46;12.52;;;5.28;;
70707;SDS011;58277;47.316;18.908;2022-10-04T18:27:21;8.73;;;4.80;;
70707;SDS011;58277;47.316;18.908;2022-10-04T18:29:57;12.77;;;5.40;;
70707;SDS011;58277;47.316;18.908;2022-10-04T18:34:56;11.55;;;6.00;;
70707;SDS011;58277;47.316;18.908;2022-10-04T18:37:36;11.95;;;6.13;;
70707;SDS011;58277;47.316;18.908;2022-10-04T18:40:12;11.60;;;5.93;;
70707;SDS011;58277;47.316;18.908;2022-10-04T18:42:42;11.50;;;5.95;;
70707;SDS011;58277;47.316;18.908;2022-10-04T18:45:20;13.10;;;6.20;;
70707;SDS011;58277;47.316;18.908;2022-10-04T18:47:50;15.25;;;6.00;;
70707;SDS011;58277;47.316;18.908;2022-10-04T18:55:20;12.93;;;6.30;;
70707;SDS011;58277;47.316;18.908;2022-10-04T18:58:13;11.57;;;6.23;;
70707;SDS011;58277;47.316;18.908;2022-10-04T19:04:25;13.27;;;6.05;;
70707;SDS011;58277;47.316;18.908;2022-10-04T19:06:58;13.07;;;5.65;;
70707;SDS011;58277;47.316;18.908;2022-10-04T19:15:37;12.98;;;5.72;;
70707;SDS011;58277;47.316;18.908;2022-10-04T19:21:36;11.05;;;5.13;;
70707;SDS011;58277;47.316;18.908;2022-10-04T19:24:12;11.07;;;5.70;;
70707;SDS011;58277;47.316;18.908;2022-10-04T19:32:43;10.48;;;5.18;;
70707;SDS011;58277;47.316;18.908;2022-10-04T19:38:04;10.55;;;5.28;;
70707;SDS011;58277;47.316;18.908;2022-10-04T19:54:49;10.00;;;4.87;;
70707;SDS011;58277;47.316;18.908;2022-10-04T19:57:18;10.48;;;4.82;;
70707;SDS011;58277;47.316;18.908;2022-10-04T19:59:53;12.23;;;5.35;;
70707;SDS011;58277;47.316;18.908;2022-10-04T20:02:17;11.27;;;5.50;;
70707;SDS011;58277;47.316;18.908;2022-10-04T20:04:42;9.90;;;4.75;;
70707;SDS011;58277;47.316;18.908;2022-10-04T20:11:58;10.27;;;4.75;;
70707;SDS011;58277;47.316;18.908;2022-10-04T20:19:17;9.40;;;4.80;;
70707;SDS011;58277;47.316;18.908;2022-10-04T20:21:41;10.18;;;4.30;;
70707;SDS011;58277;47.316;18.908;2022-10-04T20:24:06;10.05;;;4.72;;
70707;SDS011;58277;47.316;18.908;2022-10-04T20:26:38;9.75;;;4.70;;
70707;SDS011;58277;47.316;18.908;2022-10-04T20:31:57;9.37;;;4.77;;
70707;SDS011;58277;47.316;18.908;2022-10-04T20:34:30;11.00;;;4.55;;
70707;SDS011;58277;47.316;18.908;2022-10-04T20:36:56;10.10;;;4.35;;
70707;SDS011;58277;47.316;18.908;2022-10-04T20:47:33;9.30;;;4.72;;
70707;SDS011;58277;47.316;18.908;2022-10-04T20:49:56;10.02;;;4.57;;
70707;SDS011;58277;47.316;18.908;2022-10-04T20:52:20;9.05;;;4.75;;
70707;SDS011;58277;47.316;18.908;2022-10-04T20:54:51;9.18;;;4.50;;
70707;SDS011;58277;47.316;18.908;2022-10-04T20:57:14;9.37;;;4.77;;
70707;SDS011;58277;47.316;18.908;2022-10-04T20:59:37;10.00;;;4.57;;
70707;SDS011;58277;47.316;18.908;2022-10-04T21:02:00;9.93;;;4.68;;
70707;SDS011;58277;47.316;18.908;2022-10-04T21:04:28;9.43;;;4.45;;
70707;SDS011;58277;47.316;18.908;2022-10-04T21:06:56;9.88;;;4.63;;
70707;SDS011;58277;47.316;18.908;2022-10-04T21:09:24;11.13;;;4.73;;
70707;SDS011;58277;47.316;18.908;2022-10-04T21:11:49;9.85;;;4.47;;
70707;SDS011;58277;47.316;18.908;2022-10-04T21:14:56;8.82;;;4.57;;
70707;SDS011;58277;47.316;18.908;2022-10-04T21:17:02;11.85;;;4.65;;
70707;SDS011;58277;47.316;18.908;2022-10-04T21:19:45;9.15;;;4.60;;
70707;SDS011;58277;47.316;18.908;2022-10-04T21:22:08;9.77;;;4.57;;
70707;SDS011;58277;47.316;18.908;2022-10-04T21:27:23;13.98;;;4.95;;
70707;SDS011;58277;47.316;18.908;2022-10-04T21:30:11;7.78;;;4.13;;
70707;SDS011;58277;47.316;18.908;2022-10-04T21:32:35;9.18;;;4.60;;
70707;SDS011;58277;47.316;18.908;2022-10-04T21:34:58;8.90;;;4.03;;
70707;SDS011;58277;47.316;18.908;2022-10-04T21:37:21;8.68;;;4.32;;
70707;SDS011;58277;47.316;18.908;2022-10-04T21:39:44;9.45;;;4.15;;
70707;SDS011;58277;47.316;18.908;2022-10-04T21:42:06;9.63;;;4.22;;
70707;SDS011;58277;47.316;18.908;2022-10-04T21:44:29;8.85;;;4.25;;
70707;SDS011;58277;47.316;18.908;2022-10-04T21:46:52;10.47;;;4.87;;
70707;SDS011;58277;47.316;18.908;2022-10-04T21:49:14;9.45;;;4.15;;
70707;SDS011;58277;47.316;18.908;2022-10-04T21:51:37;9.13;;;4.10;;
70707;SDS011;58277;47.316;18.908;2022-10-04T21:54:04;9.00;;;4.15;;
70707;SDS011;58277;47.316;18.908;2022-10-04T21:56:27;8.10;;;4.22;;
70707;SDS011;58277;47.316;18.908;2022-10-04T21:58:50;8.97;;;4.00;;
70707;SDS011;58277;47.316;18.908;2022-10-04T22:01:12;8.82;;;4.25;;
70707;SDS011;58277;47.316;18.908;2022-10-04T22:03:35;8.98;;;4.30;;
70707;SDS011;58277;47.316;18.908;2022-10-04T22:05:58;8.15;;;4.00;;
70707;SDS011;58277;47.316;18.908;2022-10-04T22:08:21;8.73;;;4.45;;
70707;SDS011;58277;47.316;18.908;2022-10-04T22:10:43;9.93;;;4.40;;
70707;SDS011;58277;47.316;18.908;2022-10-04T22:13:07;10.57;;;4.25;;
70707;SDS011;58277;47.316;18.908;2022-10-04T22:15:30;9.23;;;4.45;;
70707;SDS011;58277;47.316;18.908;2022-10-04T22:17:53;9.95;;;4.70;;
70707;SDS011;58277;47.316;18.908;2022-10-04T22:20:16;9.43;;;4.30;;
70707;SDS011;58277;47.316;18.908;2022-10-04T22:22:39;8.60;;;4.17;;
70707;SDS011;58277;47.316;18.908;2022-10-04T22:25:02;11.10;;;4.60;;
70707;SDS011;58277;47.316;18.908;2022-10-04T22:27:31;9.60;;;4.70;;
70707;SDS011;58277;47.316;18.908;2022-10-04T22:29:54;10.65;;;4.85;;
70707;SDS011;58277;47.316;18.908;2022-10-04T22:32:21;9.88;;;4.60;;
70707;SDS011;58277;47.316;18.908;2022-10-04T22:34:48;9.87;;;4.33;;
70707;SDS011;58277;47.316;18.908;2022-10-04T22:37:12;10.05;;;4.65;;
70707;SDS011;58277;47.316;18.908;2022-10-04T22:39:35;13.15;;;5.13;;
70707;SDS011;58277;47.316;18.908;2022-10-04T22:41:57;12.65;;;5.00;;
70707;SDS011;58277;47.316;18.908;2022-10-04T22:44:23;10.23;;;4.85;;
70707;SDS011;58277;47.316;18.908;2022-10-04T22:46:52;10.83;;;4.90;;
70707;SDS011;58277;47.316;18.908;2022-10-04T22:49:19;11.93;;;4.85;;
70707;SDS011;58277;47.316;18.908;2022-10-04T22:51:43;11.00;;;5.07;;
70707;SDS011;58277;47.316;18.908;2022-10-04T22:54:10;13.30;;;4.97;;
70707;SDS011;58277;47.316;18.908;2022-10-04T22:56:35;11.75;;;4.80;;
70707;SDS011;58277;47.316;18.908;2022-10-04T22:58:57;12.77;;;5.37;;
70707;SDS011;58277;47.316;18.908;2022-10-04T23:01:42;10.98;;;5.20;;
70707;SDS011;58277;47.316;18.908;2022-10-04T23:04:15;11.38;;;5.78;;
70707;SDS011;58277;47.316;18.908;2022-10-04T23:06:43;12.60;;;5.93;;
70707;SDS011;58277;47.316;18.908;2022-10-04T23:09:06;13.18;;;6.40;;
70707;SDS011;58277;47.316;18.908;2022-10-04T23:11:31;12.53;;;5.40;;
70707;SDS011;58277;47.316;18.908;2022-10-04T23:13:55;12.35;;;5.82;;
70707;SDS011;58277;47.316;18.908;2022-10-04T23:16:21;13.25;;;6.22;;
70707;SDS011;58277;47.316;18.908;2022-10-04T23:18:44;11.70;;;6.47;;
70707;SDS011;58277;47.316;18.908;2022-10-04T23:21:12;12.65;;;6.40;;
70707;SDS011;58277;47.316;18.908;2022-10-04T23:23:40;12.70;;;6.00;;
70707;SDS011;58277;47.316;18.908;2022-10-04T23:26:10;17.00;;;6.30;;
70707;SDS011;58277;47.316;18.908;2022-10-04T23:28:34;14.93;;;6.30;;
70707;SDS011;58277;47.316;18.908;2022-10-04T23:31:01;12.13;;;5.75;;
70707;SDS011;58277;47.316;18.908;2022-10-04T23:33:32;13.55;;;6.22;;
70707;SDS011;58277;47.316;18.908;2022-10-04T23:35:55;16.73;;;6.60;;
70707;SDS011;58277;47.316;18.908;2022-10-04T23:38:19;12.80;;;6.00;;
70707;SDS011;58277;47.316;18.908;2022-10-04T23:40:43;12.60;;;6.03;;
70707;SDS011;58277;47.316;18.908;2022-10-04T23:43:22;13.38;;;6.10;;
70707;SDS011;58277;47.316;18.908;2022-10-04T23:45:46;12.30;;;5.95;;
70707;SDS011;58277;47.316;18.908;2022-10-04T23:48:10;10.80;;;6.00;;
70707;SDS011;58277;47.316;18.908;2022-10-04T23:50:35;13.02;;;6.10;;
70707;SDS011;58277;47.316;18.908;2022-10-04T23:53:00;13.27;;;6.20;;
70707;SDS011;58277;47.316;18.908;2022-10-04T23:55:26;13.77;;;6.10;;
70707;SDS011;58277;47.316;18.908;2022-10-04T23:57:51;13.73;;;6.32;;
